Aviation Digital Data Service (ADDS)

Output produced by METARs form (0753 UTC 31 August 2016)
found at http://aviationweather.gov/adds/metars/
 
KSLK 310531Z 3106/0106 23005KT P6SM SCT045 BKN080 
     FM311400 23008KT P6SM VCSH BKN050 OVC070 
     FM312000 25007KT P6SM VCSH BKN035 OVC060 
     FM010000 VRB03KT P6SM VCSH OVC035